Time;durP1;ratioP1;P1;durP2;ratioP2;P2;SDS_P1;SDS_P2;PMS_P1;PMS_P2;Temp;Humidity;BMP_temperature;BMP_pressure;BME280_temperature;BME280_humidity;BME280_pressure;Samples;Min_cycle;Max_cycle;Signal;HPM_P1;HPM_P2
2021/06/07 00:00:06;;;;;;;26.40;18.95;;;17.70;99.90;;;;;;6244949;28;20060;-77
2021/06/07 00:03:08;;;;;;;34.40;19.35;;;17.60;99.90;;;;;;6245943;28;20056;-76
2021/06/07 00:06:10;;;;;;;30.77;21.10;;;17.50;99.90;;;;;;6246779;28;20142;-76
2021/06/07 00:09:15;;;;;;;23.58;18.00;;;17.50;99.90;;;;;;6249343;28;20515;-77
2021/06/07 00:12:18;;;;;;;30.58;19.48;;;17.40;99.90;;;;;;6249921;28;20128;-77
2021/06/07 00:15:22;;;;;;;26.02;17.58;;;17.40;99.90;;;;;;6249547;28;20053;-77
2021/06/07 00:18:25;;;;;;;32.08;17.27;;;17.40;99.90;;;;;;6250165;28;20179;-77
2021/06/07 00:21:29;;;;;;;29.95;17.17;;;17.40;99.90;;;;;;6249256;28;20057;-77
2021/06/07 00:24:31;;;;;;;26.60;17.83;;;17.40;99.90;;;;;;6249585;28;20128;-77
2021/06/07 00:27:32;;;;;;;29.75;20.48;;;17.40;99.90;;;;;;6249319;28;20076;-77
2021/06/07 00:30:34;;;;;;;29.50;19.42;;;17.40;99.90;;;;;;6249544;28;20124;-77
2021/06/07 00:33:37;;;;;;;38.50;19.83;;;17.30;99.90;;;;;;6249296;28;20124;-77
2021/06/07 00:36:39;;;;;;;27.35;18.70;;;17.30;99.90;;;;;;6249489;28;20179;-76
2021/06/07 00:39:41;;;;;;;27.55;19.45;;;17.30;99.90;;;;;;6248591;28;20048;-76
2021/06/07 00:42:42;;;;;;;31.83;19.50;;;17.30;99.90;;;;;;6249608;28;20473;-76
2021/06/07 00:45:43;;;;;;;28.40;19.67;;;17.20;99.90;;;;;;6248918;28;20501;-78
2021/06/07 00:48:46;;;;;;;27.23;18.63;;;17.20;99.90;;;;;;6245439;28;20127;-77
2021/06/07 00:51:48;;;;;;;30.08;18.67;;;17.20;99.90;;;;;;6248819;28;20070;-77
2021/06/07 00:54:49;;;;;;;29.05;19.10;;;17.20;99.90;;;;;;6248643;28;20138;-77
2021/06/07 00:57:51;;;;;;;31.65;19.23;;;17.20;99.90;;;;;;6248750;28;20068;-77
2021/06/07 01:00:52;;;;;;;35.58;22.38;;;17.10;99.90;;;;;;6248169;28;20050;-77
2021/06/07 01:03:58;;;;;;;26.38;17.38;;;17.20;99.90;;;;;;6248850;28;20069;-77
2021/06/07 01:07:00;;;;;;;31.83;20.52;;;17.10;99.90;;;;;;6249113;28;20057;-77
2021/06/07 01:10:01;;;;;;;28.55;19.65;;;17.10;99.90;;;;;;6248004;28;20120;-77
2021/06/07 01:13:03;;;;;;;28.17;20.15;;;17.10;99.90;;;;;;6248581;28;20507;-76
2021/06/07 01:16:05;;;;;;;26.90;18.05;;;17.10;99.90;;;;;;6248570;28;20069;-76
2021/06/07 01:19:08;;;;;;;27.60;19.48;;;17.10;99.90;;;;;;6247279;28;20130;-77
2021/06/07 01:22:11;;;;;;;34.75;19.48;;;17.10;99.90;;;;;;6248602;28;20485;-76
2021/06/07 01:25:19;;;;;;;28.27;17.42;;;17.10;99.90;;;;;;6248230;28;20055;-77
2021/06/07 01:28:20;;;;;;;29.63;19.50;;;17.10;99.90;;;;;;6248239;28;20396;-77
2021/06/07 01:31:22;;;;;;;32.70;20.00;;;17.10;99.90;;;;;;6247959;28;20160;-77
2021/06/07 01:34:23;;;;;;;36.30;20.23;;;17.10;99.90;;;;;;6248689;28;20085;-77
2021/06/07 01:37:26;;;;;;;27.08;18.92;;;17.10;99.90;;;;;;6247865;28;20418;-77
2021/06/07 01:40:30;;;;;;;28.17;18.77;;;17.10;99.90;;;;;;6247369;28;20427;-76
2021/06/07 01:43:34;;;;;;;24.85;17.52;;;17.10;99.90;;;;;;6247738;28;20045;-77
2021/06/07 01:46:36;;;;;;;29.10;18.33;;;17.10;99.90;;;;;;6248090;28;20056;-77
2021/06/07 01:49:37;;;;;;;29.50;19.75;;;17.10;99.90;;;;;;6247366;28;20128;-76
2021/06/07 01:52:44;;;;;;;24.63;16.67;;;17.10;99.90;;;;;;6247559;28;20048;-77
2021/06/07 01:55:47;;;;;;;26.20;19.33;;;17.10;99.90;;;;;;6247350;28;20072;-76
2021/06/07 01:58:48;;;;;;;24.23;17.35;;;17.10;99.90;;;;;;6247493;28;20127;-76
2021/06/07 02:01:50;;;;;;;24.23;16.67;;;17.00;99.90;;;;;;6247236;28;20081;-76
2021/06/07 02:04:52;;;;;;;28.52;20.50;;;17.00;99.90;;;;;;6247224;28;20218;-77
2021/06/07 02:07:56;;;;;;;29.60;18.08;;;17.00;99.90;;;;;;6247455;28;20076;-76
2021/06/07 02:11:00;;;;;;;41.20;18.98;;;17.00;99.90;;;;;;6247092;28;20045;-76
2021/06/07 02:14:04;;;;;;;27.38;17.17;;;17.00;99.90;;;;;;6246991;28;20069;-77
2021/06/07 02:17:05;;;;;;;33.22;18.20;;;17.00;99.90;;;;;;6246903;28;20127;-78
2021/06/07 02:20:11;;;;;;;26.73;17.58;;;17.00;99.90;;;;;;6243565;28;20068;-77
2021/06/07 02:23:14;;;;;;;31.48;18.75;;;17.00;99.90;;;;;;6246637;28;20049;-77
2021/06/07 02:26:16;;;;;;;30.90;18.50;;;16.90;99.90;;;;;;6246362;28;20056;-78
2021/06/07 02:29:17;;;;;;;31.05;20.98;;;16.90;99.90;;;;;;6245905;28;20065;-77
2021/06/07 02:32:18;;;;;;;29.70;19.65;;;16.90;99.90;;;;;;6246619;28;20091;-77
2021/06/07 02:35:21;;;;;;;25.23;17.45;;;16.90;99.90;;;;;;6246775;28;20049;-76
2021/06/07 02:38:24;;;;;;;30.52;18.08;;;16.90;99.90;;;;;;6247200;28;20134;-76
2021/06/07 02:41:26;;;;;;;33.30;19.45;;;16.90;99.90;;;;;;6246208;28;20057;-76
2021/06/07 02:44:28;;;;;;;23.70;17.45;;;16.90;99.90;;;;;;6246614;28;20141;-77
2021/06/07 02:47:29;;;;;;;28.13;19.52;;;16.90;99.90;;;;;;6246619;28;20045;-77
2021/06/07 02:50:32;;;;;;;28.90;19.48;;;16.90;99.90;;;;;;6246406;28;20541;-76
2021/06/07 02:53:35;;;;;;;28.92;17.58;;;17.00;99.90;;;;;;6246279;28;20163;-77
2021/06/07 02:56:36;;;;;;;36.15;22.33;;;17.00;99.90;;;;;;6246083;28;20570;-76
2021/06/07 02:59:38;;;;;;;32.63;20.15;;;17.00;99.90;;;;;;6246075;28;20048;-76
2021/06/07 03:02:39;;;;;;;28.45;18.65;;;17.00;99.90;;;;;;6246789;28;20092;-76
2021/06/07 03:05:43;;;;;;;27.33;18.27;;;17.00;99.90;;;;;;6246159;28;20052;-77
2021/06/07 03:08:46;;;;;;;26.55;17.63;;;17.10;99.90;;;;;;6245887;28;20152;-77
2021/06/07 03:11:47;;;;;;;22.50;17.42;;;17.10;99.90;;;;;;6246000;28;20045;-77
2021/06/07 03:14:48;;;;;;;27.20;16.27;;;17.10;99.90;;;;;;6246791;28;20144;-76
2021/06/07 03:17:51;;;;;;;30.45;18.58;;;17.20;99.90;;;;;;6246023;28;20132;-76
2021/06/07 03:20:54;;;;;;;50.17;20.95;;;17.20;99.90;;;;;;6245651;28;20045;-77
2021/06/07 03:23:56;;;;;;;27.00;16.95;;;17.50;99.90;;;;;;6246062;28;20075;-76
2021/06/07 03:26:58;;;;;;;29.48;17.88;;;17.80;99.90;;;;;;6246599;28;20389;-77
2021/06/07 03:29:59;;;;;;;24.13;16.08;;;18.00;99.90;;;;;;6245489;28;20049;-77
2021/06/07 03:33:01;;;;;;;22.60;16.02;;;18.00;99.90;;;;;;6245798;28;20124;-76
2021/06/07 03:36:03;;;;;;;23.77;15.63;;;18.10;99.90;;;;;;6245802;28;20634;-76
2021/06/07 03:39:06;;;;;;;20.88;14.63;;;18.30;99.90;;;;;;6245740;28;20521;-77
2021/06/07 03:42:08;;;;;;;21.60;12.68;;;18.30;99.90;;;;;;6248733;28;20060;-76
2021/06/07 03:45:11;;;;;;;21.13;14.82;;;18.40;99.90;;;;;;6252766;28;20523;-75
2021/06/07 03:48:13;;;;;;;21.08;14.85;;;18.40;99.90;;;;;;6253209;28;20128;-76
2021/06/07 03:51:14;;;;;;;24.58;18.30;;;18.40;99.90;;;;;;6249990;28;20045;-76
2021/06/07 03:54:17;;;;;;;27.42;17.85;;;18.30;99.90;;;;;;6250611;28;20139;-76
2021/06/07 03:57:18;;;;;;;31.52;22.27;;;18.10;99.90;;;;;;6250146;28;20128;-77
2021/06/07 04:00:22;;;;;;;31.23;21.30;;;17.90;99.90;;;;;;6249610;28;20049;-77
2021/06/07 04:03:24;;;;;;;25.88;21.42;;;17.80;99.90;;;;;;6249945;28;20132;-76
2021/06/07 04:06:25;;;;;;;30.60;21.13;;;17.70;99.90;;;;;;6251215;28;20136;-76
2021/06/07 04:09:28;;;;;;;30.83;22.48;;;17.70;99.90;;;;;;6249447;28;20077;-76
2021/06/07 04:12:30;;;;;;;28.35;21.77;;;17.60;99.90;;;;;;6249880;28;20073;-76
2021/06/07 04:15:31;;;;;;;28.80;21.90;;;17.50;99.90;;;;;;6249878;28;20064;-76
2021/06/07 04:18:33;;;;;;;28.00;20.95;;;17.60;99.90;;;;;;6247026;28;20136;-76
2021/06/07 04:21:34;;;;;;;30.15;22.02;;;17.50;99.90;;;;;;6249308;28;20125;-76
2021/06/07 04:24:37;;;;;;;35.55;22.67;;;17.60;99.90;;;;;;6249440;28;20081;-76
2021/06/07 04:27:39;;;;;;;30.58;22.10;;;17.50;99.90;;;;;;6249612;28;20124;-76
2021/06/07 04:30:40;;;;;;;30.80;23.50;;;17.50;99.90;;;;;;6249544;28;20053;-76
2021/06/07 04:33:42;;;;;;;29.30;22.40;;;17.50;99.90;;;;;;6249617;28;20132;-76
2021/06/07 04:36:43;;;;;;;29.75;23.60;;;17.50;99.90;;;;;;6249449;28;20105;-77
2021/06/07 04:39:46;;;;;;;30.67;22.75;;;17.40;99.90;;;;;;6248827;28;20482;-76
2021/06/07 04:42:47;;;;;;;33.38;23.52;;;17.40;99.90;;;;;;6249671;28;20152;-77
2021/06/07 04:45:49;;;;;;;32.90;23.08;;;17.40;99.90;;;;;;6249326;28;20076;-76
2021/06/07 04:48:50;;;;;;;35.80;25.90;;;17.30;99.90;;;;;;6248762;28;20069;-77
2021/06/07 04:51:52;;;;;;;33.97;25.23;;;17.30;99.90;;;;;;6248798;28;20114;-76
2021/06/07 04:54:54;;;;;;;35.95;25.35;;;17.30;99.90;;;;;;6249444;28;20120;-76
2021/06/07 04:57:56;;;;;;;33.95;24.02;;;17.30;99.90;;;;;;6248589;28;20519;-77
2021/06/07 05:00:59;;;;;;;36.97;27.55;;;17.20;99.90;;;;;;6248750;28;20125;-77
2021/06/07 05:04:00;;;;;;;33.75;25.38;;;17.10;99.90;;;;;;6248782;28;20128;-77
2021/06/07 05:07:02;;;;;;;39.15;26.55;;;17.10;99.90;;;;;;6249213;28;20064;-76
2021/06/07 05:10:06;;;;;;;37.67;26.05;;;17.10;99.90;;;;;;6248071;28;20412;-77
2021/06/07 05:13:07;;;;;;;38.00;28.00;;;17.10;99.90;;;;;;6248540;28;20132;-76
2021/06/07 05:16:10;;;;;;;38.80;28.08;;;17.00;99.90;;;;;;6248609;28;20132;-76
2021/06/07 05:19:11;;;;;;;46.33;29.45;;;16.90;99.90;;;;;;6248406;28;20046;-77
2021/06/07 05:22:12;;;;;;;41.70;29.42;;;17.00;99.90;;;;;;6248676;28;20521;-76
2021/06/07 05:25:16;;;;;;;44.10;29.58;;;16.90;99.90;;;;;;6248095;28;20068;-78
2021/06/07 05:28:19;;;;;;;47.72;31.45;;;17.00;99.90;;;;;;6248140;28;20519;-77
2021/06/07 05:31:20;;;;;;;40.03;28.45;;;17.00;99.90;;;;;;6247602;28;20430;-77
2021/06/07 05:34:22;;;;;;;43.00;30.30;;;17.00;99.90;;;;;;6248646;28;20104;-77
2021/06/07 05:37:23;;;;;;;46.40;32.33;;;17.00;99.90;;;;;;6247708;28;20136;-77
2021/06/07 05:40:27;;;;;;;47.58;30.10;;;17.10;99.90;;;;;;6247442;28;20073;-77
2021/06/07 05:43:29;;;;;;;45.40;31.60;;;17.10;99.90;;;;;;6247669;28;20068;-76
2021/06/07 05:46:30;;;;;;;48.92;31.77;;;17.10;99.90;;;;;;6248336;28;20053;-77
2021/06/07 05:49:35;;;;;;;44.95;32.17;;;17.10;99.90;;;;;;6247377;28;20459;-76
2021/06/07 05:52:45;;;;;;;50.28;35.00;;;17.20;99.90;;;;;;6247338;28;20577;-77
2021/06/07 05:55:49;;;;;;;48.33;32.50;;;17.20;99.90;;;;;;6247511;28;20045;-77
2021/06/07 05:58:56;;;;;;;44.83;30.75;;;17.20;99.90;;;;;;6247555;28;20056;-77
2021/06/07 06:01:57;;;;;;;42.03;30.73;;;17.20;99.90;;;;;;6246754;28;20095;-77
2021/06/07 06:04:59;;;;;;;47.08;29.65;;;17.30;99.90;;;;;;6244054;28;20598;-77
2021/06/07 06:08:00;;;;;;;42.42;28.92;;;17.30;99.90;;;;;;6248219;28;20073;-77
2021/06/07 06:11:03;;;;;;;47.33;31.55;;;17.30;99.90;;;;;;6247381;28;20051;-76
2021/06/07 06:14:04;;;;;;;57.22;41.28;;;17.30;99.90;;;;;;6258857;28;20503;-77
2021/06/07 06:17:06;;;;;;;50.25;38.67;;;17.30;99.90;;;;;;6271750;28;20053;-77
2021/06/07 06:20:08;;;;;;;57.33;34.25;;;17.30;99.90;;;;;;6252486;28;20049;-77
2021/06/07 06:23:10;;;;;;;50.50;29.45;;;17.40;99.90;;;;;;6246455;28;20414;-77
2021/06/07 06:26:13;;;;;;;42.45;29.02;;;17.40;99.90;;;;;;6246912;28;20104;-77
2021/06/07 06:29:14;;;;;;;36.97;26.23;;;17.40;99.90;;;;;;6245604;28;20041;-77
2021/06/07 06:32:15;;;;;;;32.65;23.95;;;17.40;99.90;;;;;;6247603;28;20128;-77
2021/06/07 06:35:17;;;;;;;32.78;24.77;;;17.40;99.90;;;;;;6246693;28;20140;-76
2021/06/07 06:38:19;;;;;;;29.95;22.65;;;17.40;99.90;;;;;;6247850;28;20108;-77
2021/06/07 06:41:21;;;;;;;31.70;23.77;;;17.40;99.90;;;;;;6271028;28;20132;-77
2021/06/07 06:44:23;;;;;;;29.23;23.58;;;17.40;99.90;;;;;;6271128;28;20498;-77
2021/06/07 06:47:24;;;;;;;24.02;20.50;;;17.50;99.90;;;;;;6271815;28;20139;-76
2021/06/07 06:50:27;;;;;;;24.00;21.42;;;17.50;99.90;;;;;;6271069;28;20146;-77
2021/06/07 06:53:29;;;;;;;22.02;18.80;;;17.60;99.90;;;;;;6271163;28;20057;-77
2021/06/07 06:56:31;;;;;;;23.35;19.08;;;17.60;99.90;;;;;;6270987;28;20511;-76
2021/06/07 06:59:33;;;;;;;19.67;17.70;;;17.60;99.90;;;;;;6270502;28;20132;-76
2021/06/07 07:02:34;;;;;;;19.85;16.08;;;17.60;99.90;;;;;;6271790;28;20044;-77
2021/06/07 07:05:36;;;;;;;18.90;17.00;;;17.60;99.90;;;;;;6271046;28;20045;-76
2021/06/07 07:08:37;;;;;;;21.63;16.67;;;17.70;99.90;;;;;;6270726;28;20518;-76
2021/06/07 07:11:40;;;;;;;17.80;14.93;;;17.70;99.90;;;;;;6270983;28;20498;-76
2021/06/07 07:14:42;;;;;;;17.15;15.35;;;17.60;99.90;;;;;;6252204;28;20053;-77
2021/06/07 07:17:43;;;;;;;15.95;14.30;;;17.80;99.90;;;;;;6250055;28;20520;-77
2021/06/07 07:20:45;;;;;;;17.45;14.90;;;17.90;99.90;;;;;;6250987;28;20139;-77
2021/06/07 07:23:47;;;;;;;16.15;14.23;;;17.90;99.90;;;;;;6251476;28;20041;-77
2021/06/07 07:26:49;;;;;;;17.23;15.43;;;18.00;99.90;;;;;;6252129;28;20138;-77
2021/06/07 07:29:51;;;;;;;15.82;14.23;;;18.20;99.90;;;;;;6250595;28;20132;-76
2021/06/07 07:32:52;;;;;;;14.77;13.27;;;18.30;99.90;;;;;;6251407;28;20072;-76
2021/06/07 07:35:53;;;;;;;15.55;12.93;;;18.30;99.90;;;;;;6250723;28;20150;-77
2021/06/07 07:38:55;;;;;;;13.70;12.02;;;18.30;99.90;;;;;;6251290;28;20132;-76
2021/06/07 07:41:59;;;;;;;15.65;13.80;;;18.30;99.90;;;;;;6250781;28;20052;-77
2021/06/07 07:45:01;;;;;;;13.13;11.82;;;18.40;99.90;;;;;;6250944;28;20510;-77
2021/06/07 07:48:05;;;;;;;12.73;11.45;;;18.40;99.90;;;;;;6251046;28;20128;-77
2021/06/07 07:51:07;;;;;;;14.05;12.75;;;18.40;99.90;;;;;;6251016;28;20136;-76
2021/06/07 07:54:09;;;;;;;11.15;9.70;;;18.30;99.90;;;;;;6251573;28;20478;-76
2021/06/07 07:57:13;;;;;;;11.82;10.52;;;18.30;99.90;;;;;;6251556;28;20177;-77
2021/06/07 08:00:15;;;;;;;12.98;11.68;;;18.30;99.90;;;;;;6250306;28;20479;-76
2021/06/07 08:03:17;;;;;;;15.43;12.75;;;18.30;99.90;;;;;;6251160;28;20081;-76
2021/06/07 08:06:18;;;;;;;13.25;12.00;;;18.30;99.90;;;;;;6254068;28;20092;-77
2021/06/07 08:09:20;;;;;;;11.55;10.55;;;18.30;99.90;;;;;;6253122;28;20119;-77
2021/06/07 08:12:23;;;;;;;13.18;10.73;;;18.20;99.90;;;;;;6252991;28;20129;-77
2021/06/07 08:15:24;;;;;;;12.55;11.32;;;18.20;99.90;;;;;;6277770;28;20059;-77
2021/06/07 08:18:25;;;;;;;12.43;11.23;;;18.20;99.90;;;;;;6272336;28;20250;-77
2021/06/07 08:21:27;;;;;;;13.90;11.10;;;18.20;99.90;;;;;;6253336;28;20087;-76
2021/06/07 08:24:28;;;;;;;10.65;9.70;;;18.30;99.90;;;;;;6252428;28;20069;-77
2021/06/07 08:27:31;;;;;;;11.30;10.40;;;18.40;99.90;;;;;;6248989;28;20515;-77
2021/06/07 08:30:34;;;;;;;12.90;11.75;;;18.40;99.90;;;;;;6250228;28;20080;-76
2021/06/07 08:33:36;;;;;;;11.43;10.50;;;18.40;99.90;;;;;;6249513;28;20423;-77
2021/06/07 08:36:37;;;;;;;15.32;12.30;;;18.40;99.90;;;;;;6249585;28;20045;-77
2021/06/07 08:39:38;;;;;;;13.55;12.35;;;18.40;99.90;;;;;;6249147;28;20048;-77
2021/06/07 08:42:42;;;;;;;12.23;11.20;;;18.40;99.90;;;;;;6250132;28;20057;-77
2021/06/07 08:45:44;;;;;;;12.57;11.55;;;18.50;99.90;;;;;;6249510;28;20053;-77
2021/06/07 08:48:45;;;;;;;11.88;10.77;;;18.50;99.90;;;;;;6248729;28;20126;-77
2021/06/07 08:51:46;;;;;;;13.05;11.77;;;18.50;99.90;;;;;;6249356;28;20599;-76
2021/06/07 08:54:48;;;;;;;12.25;11.20;;;18.60;99.90;;;;;;6249261;28;20108;-76
2021/06/07 08:57:53;;;;;;;11.95;10.95;;;18.70;99.90;;;;;;6248912;28;20068;-77
2021/06/07 09:00:54;;;;;;;12.60;10.48;;;18.80;99.90;;;;;;6252882;28;20072;-76
2021/06/07 09:04:08;;;;;;;11.73;10.73;;;18.90;99.90;;;;;;6251872;28;20133;-76
2021/06/07 09:07:10;;;;;;;12.57;11.48;;;19.00;99.90;;;;;;6251122;28;20137;-77
2021/06/07 09:10:13;;;;;;;10.85;9.95;;;19.10;99.90;;;;;;6250071;28;20056;-77
2021/06/07 09:13:18;;;;;;;11.15;9.88;;;19.10;99.90;;;;;;6251218;28;20048;-77
2021/06/07 09:16:19;;;;;;;11.20;10.30;;;19.20;99.90;;;;;;6249875;28;20051;-77
2021/06/07 09:19:23;;;;;;;12.02;10.98;;;19.20;99.90;;;;;;6250541;28;20649;-77
2021/06/07 09:22:29;;;;;;;11.18;10.13;;;19.20;99.90;;;;;;6253075;28;20092;-77
2021/06/07 09:25:33;;;;;;;11.73;10.52;;;19.10;99.90;;;;;;6251262;28;20479;-76
2021/06/07 09:28:39;;;;;;;12.70;11.52;;;19.00;99.90;;;;;;6250483;28;20434;-78
2021/06/07 09:31:45;;;;;;;12.13;11.02;;;19.00;99.90;;;;;;6251367;28;20168;-77
2021/06/07 09:34:47;;;;;;;17.67;15.23;;;18.80;99.90;;;;;;6252920;28;20053;-77
2021/06/07 09:38:04;;;;;;;13.80;12.60;;;18.70;99.90;;;;;;6248910;28;20045;-77
2021/06/07 09:41:05;;;;;;;14.65;13.25;;;18.70;99.90;;;;;;6247247;28;20439;-77
2021/06/07 09:44:08;;;;;;;14.70;13.35;;;18.60;99.90;;;;;;6248091;28;20128;-77
2021/06/07 09:47:18;;;;;;;15.43;14.00;;;18.60;99.90;;;;;;6247238;28;20574;-76
2021/06/07 09:50:22;;;;;;;15.27;13.68;;;18.60;99.90;;;;;;6248256;28;20045;-77
2021/06/07 09:53:44;;;;;;;15.68;14.23;;;18.60;99.90;;;;;;6247801;28;20128;-77
2021/06/07 09:56:50;;;;;;;12.70;11.55;;;18.60;99.90;;;;;;6247775;28;20463;-77
2021/06/07 09:59:52;;;;;;;12.98;11.77;;;18.60;99.90;;;;;;6247296;28;20049;-77
2021/06/07 10:02:54;;;;;;;14.23;13.02;;;18.70;99.90;;;;;;6248366;28;20139;-77
2021/06/07 10:05:58;;;;;;;14.15;12.85;;;18.80;99.90;;;;;;6247815;28;20045;-77
2021/06/07 10:09:00;;;;;;;12.18;11.07;;;18.80;99.90;;;;;;6246916;28;20050;-77
2021/06/07 10:12:02;;;;;;;12.40;11.13;;;18.80;99.90;;;;;;6239496;28;20127;-77
2021/06/07 10:15:06;;;;;;;14.52;13.23;;;18.90;99.90;;;;;;6247732;28;20067;-77
2021/06/07 10:18:10;;;;;;;13.18;10.20;;;18.90;99.90;;;;;;6247364;28;20080;-77
2021/06/07 10:21:11;;;;;;;11.15;9.82;;;18.90;99.90;;;;;;6221153;28;20562;-77
2021/06/07 10:24:13;;;;;;;12.43;10.18;;;18.90;99.90;;;;;;6221652;28;20124;-76
2021/06/07 10:27:14;;;;;;;15.60;11.88;;;18.90;99.90;;;;;;6222073;28;20555;-77
2021/06/07 10:30:20;;;;;;;13.07;11.75;;;18.80;99.90;;;;;;6222456;28;20077;-77
2021/06/07 10:33:30;;;;;;;13.40;11.93;;;18.80;99.90;;;;;;6222945;28;20077;-77
2021/06/07 10:36:40;;;;;;;12.15;10.98;;;18.70;99.90;;;;;;6222450;28;20045;-77
2021/06/07 10:39:42;;;;;;;12.60;11.32;;;18.60;99.90;;;;;;6222358;28;20046;-77
2021/06/07 10:42:53;;;;;;;13.23;11.85;;;18.70;99.90;;;;;;6222747;28;20050;-77
2021/06/07 10:46:25;;;;;;;12.80;11.68;;;18.70;99.90;;;;;;6222106;28;20042;-77
2021/06/07 10:49:38;;;;;;;18.20;15.35;;;18.70;99.90;;;;;;6221777;28;20132;-77
2021/06/07 10:52:50;;;;;;;13.85;12.40;;;18.70;99.90;;;;;;6222184;28;20101;-76
2021/06/07 10:56:05;;;;;;;12.95;11.75;;;18.80;99.90;;;;;;6221786;28;20515;-77
2021/06/07 10:59:14;;;;;;;13.35;12.13;;;18.90;99.90;;;;;;6222182;28;20072;-77
2021/06/07 11:02:19;;;;;;;15.05;13.60;;;19.00;99.90;;;;;;6247639;23;20077;-75
2021/06/07 11:05:22;;;;;;;14.65;13.25;;;19.10;99.90;;;;;;6246181;28;20585;-76
2021/06/07 11:08:26;;;;;;;16.50;14.80;;;19.10;99.90;;;;;;6246059;28;20064;-75
2021/06/07 11:11:46;;;;;;;13.68;12.15;;;19.10;99.90;;;;;;6245779;28;20410;-76
2021/06/07 11:15:09;;;;;;;13.63;12.35;;;19.20;99.90;;;;;;6246299;28;20057;-75
2021/06/07 11:18:31;;;;;;;12.95;11.52;;;19.20;99.90;;;;;;6246368;28;20071;-75
2021/06/07 11:21:36;;;;;;;13.18;11.10;;;19.20;99.90;;;;;;6245594;28;20053;-75
2021/06/07 11:24:39;;;;;;;12.55;11.32;;;19.20;99.90;;;;;;6245787;28;20083;-75
2021/06/07 11:27:41;;;;;;;13.18;10.02;;;19.20;99.90;;;;;;6245696;28;20053;-75
2021/06/07 11:30:42;;;;;;;11.60;10.50;;;19.20;99.90;;;;;;6245910;28;20052;-76
2021/06/07 11:33:55;;;;;;;15.73;11.05;;;19.30;99.90;;;;;;6245136;28;20133;-75
2021/06/07 11:36:59;;;;;;;11.60;10.48;;;19.30;99.90;;;;;;6245880;28;20046;-76
2021/06/07 11:40:02;;;;;;;12.75;11.48;;;19.30;99.90;;;;;;6245227;28;20046;-76
2021/06/07 11:43:04;;;;;;;11.88;10.65;;;19.40;99.90;;;;;;6246288;28;20132;-76
2021/06/07 11:46:05;;;;;;;13.23;9.70;;;19.30;99.90;;;;;;6245637;28;20140;-76
2021/06/07 11:49:11;;;;;;;11.05;9.95;;;19.30;99.90;;;;;;6245496;28;20195;-76
2021/06/07 11:52:13;;;;;;;10.13;9.00;;;19.30;99.90;;;;;;6245597;28;20421;-77
2021/06/07 11:55:17;;;;;;;11.52;10.43;;;19.20;99.90;;;;;;6245777;28;20085;-76
2021/06/07 11:58:20;;;;;;;16.95;11.95;;;19.20;99.90;;;;;;6246032;28;20140;-76
2021/06/07 12:01:22;;;;;;;13.35;12.10;;;19.10;99.90;;;;;;6244915;28;20107;-76
2021/06/07 12:04:25;;;;;;;12.85;11.55;;;19.10;99.90;;;;;;6249772;28;20124;-76
2021/06/07 12:07:27;;;;;;;15.00;13.50;;;19.00;99.90;;;;;;6250280;28;20054;-76
2021/06/07 12:10:28;;;;;;;16.35;14.43;;;19.00;99.90;;;;;;6250344;28;20144;-76
2021/06/07 12:13:32;;;;;;;21.30;15.68;;;18.90;99.90;;;;;;6249571;28;20517;-76
2021/06/07 12:16:38;;;;;;;17.23;14.10;;;18.90;99.90;;;;;;6249896;28;20049;-76
2021/06/07 12:19:42;;;;;;;16.83;15.00;;;19.00;99.90;;;;;;6246856;28;20128;-76
2021/06/07 12:22:45;;;;;;;19.98;17.08;;;19.00;99.90;;;;;;6250175;28;20192;-76
2021/06/07 12:28:17;;;;;;;18.73;15.73;;;19.00;99.90;;;;;;6249467;28;20538;-76
2021/06/07 12:29:24;;;;;;;24.17;16.25;;;19.10;99.90;;;;;;6248645;28;20522;-77
2021/06/07 12:32:26;;;;;;;26.08;20.90;;;19.10;99.90;;;;;;6249431;28;20053;-75
2021/06/07 12:35:31;;;;;;;24.20;19.95;;;19.20;99.90;;;;;;6249296;28;20053;-76
2021/06/07 12:38:39;;;;;;;25.55;21.83;;;19.20;99.90;;;;;;6249571;28;20060;-76
2021/06/07 12:41:45;;;;;;;28.00;22.20;;;19.20;99.90;;;;;;6249192;28;20168;-76
2021/06/07 12:44:46;;;;;;;26.77;21.30;;;19.30;99.90;;;;;;6248881;28;20095;-76
2021/06/07 12:47:48;;;;;;;30.23;24.05;;;19.30;99.90;;;;;;6249269;28;20052;-76
2021/06/07 12:50:53;;;;;;;31.55;23.15;;;19.30;99.90;;;;;;6249042;28;20187;-76
2021/06/07 12:53:55;;;;;;;32.70;23.00;;;19.40;99.90;;;;;;6248856;28;20073;-76
2021/06/07 12:56:57;;;;;;;29.02;23.73;;;19.50;99.90;;;;;;6248528;28;20087;-75
2021/06/07 12:59:58;;;;;;;27.23;22.98;;;19.50;99.90;;;;;;6248820;28;20056;-75
2021/06/07 13:03:04;;;;;;;29.48;23.25;;;19.50;99.90;;;;;;6248955;28;20049;-76
2021/06/07 13:06:10;;;;;;;33.50;22.50;;;19.50;99.90;;;;;;6249640;28;20103;-75
2021/06/07 13:09:12;;;;;;;34.17;25.25;;;19.40;99.90;;;;;;6248217;28;20520;-76
2021/06/07 13:12:15;;;;;;;33.42;26.75;;;19.40;99.90;;;;;;6248352;28;20045;-75
2021/06/07 13:15:23;;;;;;;36.25;26.50;;;19.40;99.90;;;;;;6248199;28;20128;-75
2021/06/07 13:18:24;;;;;;;31.10;23.88;;;19.50;99.90;;;;;;6248601;28;20414;-76
2021/06/07 13:21:46;;;;;;;32.83;24.63;;;19.60;99.90;;;;;;6247710;28;20449;-76
2021/06/07 13:24:49;;;;;;;33.15;25.42;;;19.80;99.90;;;;;;6248283;28;20049;-76
2021/06/07 13:27:51;;;;;;;35.17;26.20;;;19.80;99.90;;;;;;6247611;28;20477;-76
2021/06/07 13:31:05;;;;;;;35.75;25.77;;;19.90;99.90;;;;;;6248135;28;20049;-75
2021/06/07 13:34:11;;;;;;;35.75;25.63;;;19.90;99.90;;;;;;6247133;28;20552;-76
2021/06/07 13:37:24;;;;;;;36.03;27.70;;;19.80;99.90;;;;;;6247506;28;20132;-75
2021/06/07 13:40:27;;;;;;;33.00;24.95;;;19.90;99.90;;;;;;6247141;28;20045;-75
2021/06/07 13:43:28;;;;;;;42.03;27.20;;;19.80;99.90;;;;;;6247818;28;20072;-75
2021/06/07 13:46:29;;;;;;;34.88;25.40;;;19.90;99.90;;;;;;6247745;28;20053;-75
2021/06/07 13:49:31;;;;;;;32.95;26.02;;;19.90;99.90;;;;;;6247079;28;20474;-75
2021/06/07 13:52:48;;;;;;;36.38;25.67;;;19.90;99.90;;;;;;6247478;28;20041;-75
2021/06/07 13:55:50;;;;;;;33.88;25.42;;;20.00;99.90;;;;;;6247452;28;20073;-75
2021/06/07 13:58:53;;;;;;;38.58;25.40;;;19.90;99.90;;;;;;6247431;28;20076;-76
2021/06/07 14:01:55;;;;;;;41.97;26.60;;;20.00;99.90;;;;;;6246749;28;20049;-75
2021/06/07 14:04:56;;;;;;;40.38;27.52;;;20.00;99.90;;;;;;6247239;28;20059;-75
2021/06/07 14:07:59;;;;;;;38.20;28.23;;;20.10;99.90;;;;;;6246998;28;20037;-76
2021/06/07 14:11:03;;;;;;;36.92;27.48;;;20.10;99.90;;;;;;6247057;28;20069;-76
2021/06/07 14:14:05;;;;;;;44.88;26.88;;;20.00;99.90;;;;;;6247045;28;20053;-76
2021/06/07 14:17:06;;;;;;;32.50;24.75;;;20.00;99.90;;;;;;6229030;28;20507;-75
2021/06/07 14:20:10;;;;;;;33.67;25.42;;;20.00;99.90;;;;;;6246451;28;20048;-76
2021/06/07 14:26:38;;;;;;;34.53;24.13;;;20.10;99.90;;;;;;6246473;28;20415;-76
2021/06/07 14:29:42;;;;;;;32.50;23.88;;;20.10;99.90;;;;;;6246336;28;20049;-76
2021/06/07 14:32:43;;;;;;;39.60;24.08;;;20.10;99.90;;;;;;6246275;28;20049;-76
2021/06/07 14:35:45;;;;;;;34.80;23.02;;;20.10;99.90;;;;;;6246679;28;20044;-76
2021/06/07 14:38:50;;;;;;;33.92;24.02;;;20.20;99.90;;;;;;6246702;28;20709;-75
2021/06/07 14:41:52;;;;;;;30.15;23.13;;;20.20;99.90;;;;;;6246302;28;20116;-75
2021/06/07 14:44:53;;;;;;;29.35;22.00;;;20.20;99.90;;;;;;6246433;28;20088;-76
2021/06/07 14:47:54;;;;;;;32.17;22.63;;;20.30;99.90;;;;;;6246117;28;20132;-76
2021/06/07 14:50:56;;;;;;;32.60;21.30;;;20.30;99.90;;;;;;6246720;28;20080;-75
2021/06/07 14:53:59;;;;;;;36.42;22.98;;;20.30;99.90;;;;;;6245894;28;20049;-76
2021/06/07 14:57:00;;;;;;;25.23;20.80;;;20.30;99.90;;;;;;6246391;28;20510;-77
2021/06/07 15:00:03;;;;;;;32.53;23.55;;;20.20;99.90;;;;;;6245640;28;20175;-75
2021/06/07 15:03:05;;;;;;;33.13;22.55;;;20.20;99.90;;;;;;6246038;28;20084;-76
2021/06/07 15:06:06;;;;;;;32.38;23.88;;;20.20;99.90;;;;;;6245769;28;20128;-76
2021/06/07 15:09:09;;;;;;;28.75;21.05;;;20.30;99.80;;;;;;6245552;28;20073;-76
2021/06/07 15:12:11;;;;;;;25.10;20.10;;;20.30;99.70;;;;;;6245778;28;20069;-75
2021/06/07 15:15:13;;;;;;;31.35;22.35;;;20.40;99.80;;;;;;6245826;28;20081;-76
2021/06/07 15:18:14;;;;;;;25.67;20.23;;;20.40;99.70;;;;;;6246182;28;20049;-76
2021/06/07 15:21:16;;;;;;;29.70;19.48;;;20.40;99.40;;;;;;6245429;28;20104;-76
2021/06/07 15:24:18;;;;;;;27.90;22.35;;;20.40;99.30;;;;;;6245819;28;20069;-76
2021/06/07 15:27:20;;;;;;;27.90;19.85;;;20.40;99.40;;;;;;6245712;28;20056;-75
2021/06/07 15:30:22;;;;;;;33.20;19.73;;;20.40;99.20;;;;;;6246275;28;20455;-76
2021/06/07 15:33:25;;;;;;;25.40;18.13;;;20.50;99.10;;;;;;6245600;28;20073;-76